createdAt,value
2018-02-11T00:02:21.356Z,11.10
2018-02-11T00:04:47.571Z,10.38
2018-02-11T00:07:14.200Z,10.35
2018-02-11T00:09:40.824Z,11.70
2018-02-11T00:12:07.184Z,11.07
2018-02-11T00:14:33.645Z,11.73
2018-02-11T00:16:59.955Z,11.10
2018-02-11T00:19:26.257Z,10.85
2018-02-11T00:21:52.562Z,11.12
2018-02-11T00:24:18.899Z,12.10
2018-02-11T00:26:45.546Z,11.43
2018-02-11T00:29:11.878Z,11.98
2018-02-11T00:31:38.234Z,11.15
2018-02-11T00:34:04.455Z,12.30
2018-02-11T00:36:31.471Z,12.20
2018-02-11T00:38:58.217Z,10.77
2018-02-11T00:41:24.507Z,12.27
2018-02-11T00:43:50.799Z,13.90
2018-02-11T00:46:17.539Z,14.15
2018-02-11T00:48:43.878Z,15.88
2018-02-11T00:51:10.174Z,15.57
2018-02-11T00:53:36.588Z,16.30
2018-02-11T00:56:02.813Z,15.32
2018-02-11T00:58:29.116Z,16.67
2018-02-11T01:00:55.490Z,14.90
2018-02-11T01:03:21.828Z,13.43
2018-02-11T01:05:48.704Z,12.20
2018-02-11T01:08:15.046Z,10.40
2018-02-11T01:10:41.284Z,10.75
2018-02-11T01:13:07.541Z,11.00
2018-02-11T01:15:33.819Z,11.35
2018-02-11T01:18:00.072Z,10.98
2018-02-11T01:20:26.316Z,10.85
2018-02-11T01:22:52.591Z,10.45
2018-02-11T01:25:19.300Z,10.48
2018-02-11T01:27:45.697Z,10.20
2018-02-11T01:30:12.005Z,10.40
2018-02-11T01:32:38.304Z,11.38
2018-02-11T01:35:04.572Z,10.75
2018-02-11T01:37:30.843Z,10.10
2018-02-11T01:39:57.278Z,9.90
2018-02-11T01:42:23.531Z,10.75
2018-02-11T01:44:49.899Z,10.68
2018-02-11T01:47:16.159Z,10.18
2018-02-11T01:49:42.524Z,10.85
2018-02-11T01:52:08.871Z,10.75
2018-02-11T01:54:35.163Z,11.63
2018-02-11T01:57:01.505Z,10.50
2018-02-11T01:59:27.990Z,11.65
2018-02-11T02:01:54.268Z,10.90
2018-02-11T02:04:20.611Z,11.50
2018-02-11T02:06:46.924Z,11.65
2018-02-11T02:09:13.266Z,10.50
2018-02-11T02:11:39.499Z,12.48
2018-02-11T02:14:05.738Z,11.93
2018-02-11T02:16:32.003Z,10.80
2018-02-11T02:18:58.296Z,11.45
2018-02-11T02:21:24.597Z,11.15
2018-02-11T02:23:50.828Z,11.05
2018-02-11T02:26:17.075Z,10.48
2018-02-11T02:28:43.441Z,10.68
2018-02-11T02:31:09.715Z,12.43
2018-02-11T02:33:35.997Z,12.82
2018-02-11T02:36:02.286Z,12.10
2018-02-11T02:38:28.868Z,11.60
2018-02-11T02:40:55.151Z,12.93
2018-02-11T02:43:21.850Z,12.37
2018-02-11T02:45:48.100Z,10.90
2018-02-11T02:48:14.956Z,12.60
2018-02-11T02:50:41.260Z,12.88
2018-02-11T02:53:07.639Z,13.30
2018-02-11T02:55:33.898Z,12.85
2018-02-11T02:58:00.169Z,13.90
2018-02-11T03:00:26.864Z,12.75
2018-02-11T03:02:53.094Z,12.80
2018-02-11T03:05:19.416Z,14.18
2018-02-11T03:07:45.815Z,13.93
2018-02-11T03:10:12.186Z,15.43
2018-02-11T03:12:38.518Z,13.93
2018-02-11T03:15:04.867Z,13.50
2018-02-11T03:17:31.257Z,14.02
2018-02-11T03:19:57.626Z,14.87
2018-02-11T03:22:23.968Z,14.10
2018-02-11T03:24:50.280Z,14.52
2018-02-11T03:27:16.556Z,14.02
2018-02-11T03:29:43.392Z,14.95
2018-02-11T03:32:09.651Z,14.23
2018-02-11T03:34:35.901Z,16.50
2018-02-11T03:37:02.533Z,15.35
2018-02-11T03:39:28.804Z,14.48
2018-02-11T03:41:55.037Z,16.10
2018-02-11T03:44:21.502Z,14.50
2018-02-11T03:46:47.898Z,15.55
2018-02-11T03:49:14.085Z,15.32
2018-02-11T03:51:40.374Z,14.00
2018-02-11T03:54:07.029Z,14.45
2018-02-11T03:56:33.334Z,14.90
2018-02-11T03:58:59.720Z,14.18
2018-02-11T04:01:26.014Z,14.70
2018-02-11T04:03:52.640Z,15.43
2018-02-11T04:06:19.387Z,14.02
2018-02-11T04:08:45.702Z,15.70
2018-02-11T04:11:12.355Z,13.60
2018-02-11T04:13:38.716Z,14.60
2018-02-11T04:16:05.012Z,16.95
2018-02-11T04:18:31.477Z,15.07
2018-02-11T04:20:57.852Z,16.05
2018-02-11T04:23:24.177Z,17.70
2018-02-11T04:25:50.523Z,15.57
2018-02-11T04:28:16.813Z,16.40
2018-02-11T04:30:43.173Z,16.00
2018-02-11T04:33:09.526Z,15.40
2018-02-11T04:35:36.548Z,16.10
2018-02-11T04:38:02.803Z,15.13
2018-02-11T04:40:29.503Z,15.45
2018-02-11T04:42:55.939Z,14.30
2018-02-11T04:45:22.164Z,13.98
2018-02-11T04:47:48.578Z,14.73
2018-02-11T04:50:14.898Z,14.00
2018-02-11T04:52:41.150Z,14.10
2018-02-11T04:55:07.456Z,13.57
2018-02-11T04:57:33.856Z,13.93
2018-02-11T05:00:00.149Z,14.30
2018-02-11T05:02:26.418Z,15.63
2018-02-11T05:04:53.909Z,13.57
2018-02-11T05:07:20.240Z,12.98
2018-02-11T05:09:46.560Z,13.70
2018-02-11T05:12:12.868Z,14.15
2018-02-11T05:14:39.224Z,13.07
2018-02-11T05:17:05.526Z,13.88
2018-02-11T05:19:31.826Z,14.27
2018-02-11T05:21:58.262Z,13.10
2018-02-11T05:24:24.527Z,13.98
2018-02-11T05:26:50.928Z,13.23
2018-02-11T05:29:17.183Z,12.98
2018-02-11T05:31:43.918Z,11.73
2018-02-11T05:34:10.629Z,12.75
2018-02-11T05:36:36.844Z,12.93
2018-02-11T05:39:03.217Z,11.00
2018-02-11T05:41:29.577Z,13.43
2018-02-11T05:43:55.814Z,11.93
2018-02-11T05:46:22.182Z,11.55
2018-02-11T05:48:48.388Z,12.00
2018-02-11T05:51:14.714Z,11.57
2018-02-11T05:53:40.930Z,12.73
2018-02-11T05:56:07.249Z,12.50
2018-02-11T05:58:33.621Z,12.55
2018-02-11T06:00:59.921Z,12.85
2018-02-11T06:03:26.338Z,11.98
2018-02-11T06:05:52.636Z,12.63
2018-02-11T06:08:19.218Z,11.60
2018-02-11T06:10:45.647Z,10.95
2018-02-11T06:13:11.949Z,11.50
2018-02-11T06:15:38.424Z,12.80
2018-02-11T06:18:04.773Z,11.88
2018-02-11T06:20:30.999Z,12.10
2018-02-11T06:22:57.823Z,11.60
2018-02-11T06:25:24.081Z,12.57
2018-02-11T06:27:50.327Z,11.85
2018-02-11T06:30:17.028Z,11.20
2018-02-11T06:32:43.228Z,11.50
2018-02-11T06:35:09.469Z,10.70
2018-02-11T06:37:35.849Z,10.77
2018-02-11T06:40:02.575Z,9.88
2018-02-11T06:42:29.764Z,10.00
2018-02-11T06:44:56.018Z,9.63
2018-02-11T06:47:22.318Z,8.73
2018-02-11T06:49:48.655Z,10.45
2018-02-11T06:52:15.099Z,10.07
2018-02-11T06:54:41.438Z,10.35
2018-02-11T06:57:07.700Z,9.60
2018-02-11T06:59:33.916Z,9.52
2018-02-11T07:02:00.819Z,9.30
2018-02-11T07:04:27.224Z,9.38
2018-02-11T07:06:53.921Z,8.93
2018-02-11T07:09:20.166Z,9.77
2018-02-11T07:11:46.431Z,8.55
2018-02-11T07:14:12.798Z,8.60
2018-02-11T07:16:39.195Z,8.57
2018-02-11T07:19:05.821Z,9.13
2018-02-11T07:21:32.430Z,8.98
2018-02-11T07:23:59.574Z,8.45
2018-02-11T07:26:25.901Z,8.77
2018-02-11T07:28:52.318Z,8.35
2018-02-11T07:31:18.614Z,8.65
2018-02-11T07:33:45.339Z,8.40
2018-02-11T07:36:11.620Z,8.73
2018-02-11T07:38:37.930Z,8.50
2018-02-11T07:41:04.200Z,8.13
2018-02-11T07:43:30.497Z,8.00
2018-02-11T07:45:56.837Z,8.95
2018-02-11T07:48:23.201Z,9.73
2018-02-11T07:50:49.582Z,8.73
2018-02-11T07:53:15.915Z,9.65
2018-02-11T07:55:42.200Z,9.50
2018-02-11T07:58:08.489Z,9.60
2018-02-11T08:00:34.748Z,9.90
2018-02-11T08:03:00.958Z,9.95
2018-02-11T08:05:27.251Z,8.70
2018-02-11T08:07:53.545Z,8.05
2018-02-11T08:10:19.925Z,9.38
2018-02-11T08:12:46.281Z,9.68
2018-02-11T08:15:12.581Z,9.15
2018-02-11T08:17:38.835Z,9.02
2018-02-11T08:20:05.217Z,9.45
2018-02-11T08:22:31.579Z,10.23
2018-02-11T08:24:57.914Z,11.23
2018-02-11T08:27:24.303Z,10.10
2018-02-11T08:29:50.626Z,11.02
2018-02-11T08:32:16.906Z,10.50
2018-02-11T08:34:43.161Z,11.07
2018-02-11T08:37:09.554Z,10.15
2018-02-11T08:39:35.844Z,12.85
2018-02-11T08:42:02.542Z,11.35
2018-02-11T08:44:28.872Z,10.65
2018-02-11T08:46:55.132Z,11.35
2018-02-11T08:49:21.527Z,11.35
2018-02-11T08:51:47.837Z,11.75
2018-02-11T08:54:14.221Z,11.23
2018-02-11T08:56:40.633Z,12.63
2018-02-11T08:59:07.442Z,13.55
2018-02-11T09:01:33.732Z,12.37
2018-02-11T09:04:00.948Z,13.20
2018-02-11T09:06:27.842Z,11.48
2018-02-11T09:08:54.177Z,12.13
2018-02-11T09:11:20.486Z,11.15
2018-02-11T09:13:47.828Z,12.05
2018-02-11T09:16:14.085Z,16.40
2018-02-11T09:18:40.413Z,14.48
2018-02-11T09:21:07.147Z,13.25
2018-02-11T09:23:34.129Z,12.60
2018-02-11T09:26:01.004Z,11.18
2018-02-11T09:28:27.394Z,11.45
2018-02-11T09:30:53.685Z,11.93
2018-02-11T09:33:20.101Z,12.15
2018-02-11T09:35:46.437Z,11.70
2018-02-11T09:38:13.158Z,12.27
2018-02-11T09:40:39.492Z,11.93
2018-02-11T09:43:05.824Z,11.73
2018-02-11T09:45:32.221Z,11.80
2018-02-11T09:47:58.548Z,11.07
2018-02-11T09:50:25.000Z,11.57
2018-02-11T09:52:51.711Z,10.00
2018-02-11T09:55:18.335Z,11.50
2018-02-11T09:57:44.968Z,11.18
2018-02-11T10:00:11.640Z,10.30
2018-02-11T10:02:38.009Z,10.70
2018-02-11T10:05:04.302Z,11.57
2018-02-11T10:07:30.757Z,11.18
2018-02-11T10:09:57.064Z,11.48
2018-02-11T10:12:23.430Z,12.00
2018-02-11T10:14:49.788Z,12.18
2018-02-11T10:17:16.135Z,12.40
2018-02-11T10:19:42.994Z,27.33
2018-02-11T10:22:09.359Z,45.45
2018-02-11T10:24:35.727Z,14.13
2018-02-11T10:27:02.256Z,14.07
2018-02-11T10:29:28.576Z,13.60
2018-02-11T10:31:55.065Z,13.50
2018-02-11T10:34:21.354Z,14.20
2018-02-11T10:36:47.833Z,15.73
2018-02-11T10:39:14.228Z,14.05
2018-02-11T10:41:40.914Z,15.65
2018-02-11T10:44:07.169Z,19.90
2018-02-11T10:46:33.574Z,14.10
2018-02-11T10:48:59.894Z,14.80
2018-02-11T10:51:26.250Z,13.00
2018-02-11T10:53:52.650Z,13.45
2018-02-11T10:56:19.429Z,13.07
2018-02-11T10:58:45.864Z,14.30
2018-02-11T11:01:12.336Z,13.57
2018-02-11T11:03:38.647Z,16.05
2018-02-11T11:06:05.109Z,14.63
2018-02-11T11:08:31.487Z,15.95
2018-02-11T11:10:57.876Z,17.33
2018-02-11T11:13:24.300Z,44.45
2018-02-11T11:15:50.949Z,13.57
2018-02-11T11:18:17.219Z,47.15
2018-02-11T11:20:43.525Z,84.43
2018-02-11T11:23:09.785Z,67.65
2018-02-11T11:25:36.075Z,44.85
2018-02-11T11:28:02.458Z,88.78
2018-02-11T11:30:28.731Z,40.83
2018-02-11T11:32:55.319Z,64.35
2018-02-11T11:35:21.597Z,42.90
2018-02-11T11:37:47.884Z,31.87
2018-02-11T11:40:14.228Z,13.62
2018-02-11T11:42:40.522Z,11.98
2018-02-11T11:45:06.917Z,12.05
2018-02-11T11:47:33.226Z,11.43
2018-02-11T11:49:59.997Z,12.77
2018-02-11T11:52:26.323Z,11.18
2018-02-11T11:54:52.686Z,10.73
2018-02-11T11:57:19.004Z,10.90
2018-02-11T11:59:45.303Z,11.70
2018-02-11T12:02:11.697Z,11.12
2018-02-11T12:04:38.001Z,11.02
2018-02-11T12:07:04.293Z,10.00
2018-02-11T12:09:30.780Z,10.25
2018-02-11T12:11:57.220Z,11.15
2018-02-11T12:14:23.576Z,10.38
2018-02-11T12:16:49.897Z,9.95
2018-02-11T12:19:16.696Z,10.45
2018-02-11T12:21:43.046Z,11.27
2018-02-11T12:24:09.430Z,17.67
2018-02-11T12:26:35.699Z,13.38
2018-02-11T12:29:02.060Z,18.33
2018-02-11T12:31:28.760Z,9.52
2018-02-11T12:33:55.054Z,13.85
2018-02-11T12:36:21.379Z,10.35
2018-02-11T12:38:48.122Z,9.45
2018-02-11T12:41:14.644Z,8.02
2018-02-11T12:43:41.298Z,7.95
2018-02-11T12:46:07.684Z,7.43
2018-02-11T12:48:33.958Z,6.60
2018-02-11T12:51:00.361Z,7.25
2018-02-11T12:53:26.621Z,7.53
2018-02-11T12:55:52.976Z,6.97
2018-02-11T12:58:19.433Z,7.20
2018-02-11T13:00:45.774Z,7.78
2018-02-11T13:03:12.336Z,8.48
2018-02-11T13:05:39.022Z,7.37
2018-02-11T13:08:05.478Z,8.77
2018-02-11T13:10:32.480Z,7.10
2018-02-11T13:12:58.811Z,8.43
2018-02-11T13:15:25.279Z,8.43
2018-02-11T13:17:51.643Z,8.07
2018-02-11T13:20:18.032Z,8.40
2018-02-11T13:22:44.452Z,7.85
2018-02-11T13:25:10.806Z,10.80
2018-02-11T13:27:37.129Z,8.25
2018-02-11T13:30:03.616Z,9.88
2018-02-11T13:32:29.977Z,9.77
2018-02-11T13:34:56.283Z,9.90
2018-02-11T13:37:22.814Z,11.35
2018-02-11T13:39:49.191Z,9.80
2018-02-11T13:42:15.644Z,9.75
2018-02-11T13:44:42.031Z,7.18
2018-02-11T13:47:08.622Z,8.27
2018-02-11T13:49:35.055Z,9.50
2018-02-11T13:52:01.474Z,10.30
2018-02-11T13:54:27.798Z,9.35
2018-02-11T13:56:54.226Z,9.90
2018-02-11T13:59:20.582Z,9.13
2018-02-11T14:01:47.047Z,10.10
2018-02-11T14:04:13.596Z,9.00
2018-02-11T14:06:39.939Z,9.32
2018-02-11T14:09:06.340Z,9.15
2018-02-11T14:11:39.901Z,10.10
2018-02-11T14:14:06.243Z,9.10
2018-02-11T14:16:32.972Z,10.18
2018-02-11T14:18:59.695Z,9.43
2018-02-11T14:21:25.980Z,10.60
2018-02-11T14:23:52.246Z,9.23
2018-02-11T14:26:18.560Z,9.32
2018-02-11T14:28:44.891Z,9.35
2018-02-11T14:31:11.334Z,10.15
2018-02-11T14:33:37.836Z,10.93
2018-02-11T14:36:04.262Z,9.30
2018-02-11T14:38:30.729Z,9.40
2018-02-11T14:40:58.430Z,10.00
2018-02-11T14:43:24.778Z,8.98
2018-02-11T14:45:51.546Z,10.00
2018-02-11T14:48:18.123Z,9.98
2018-02-11T14:50:44.568Z,9.93
2018-02-11T14:53:11.462Z,7.65
2018-02-11T14:55:38.086Z,9.23
2018-02-11T14:58:04.434Z,8.52
2018-02-11T15:00:35.368Z,10.70
2018-02-11T15:03:01.758Z,10.43
2018-02-11T15:05:28.481Z,10.70
2018-02-11T15:07:54.889Z,9.50
2018-02-11T15:10:21.301Z,9.35
2018-02-11T15:12:47.666Z,8.07
2018-02-11T15:15:14.073Z,8.98
2018-02-11T15:17:40.390Z,9.50
2018-02-11T15:20:06.865Z,8.40
2018-02-11T15:22:33.353Z,9.13
2018-02-11T15:24:59.864Z,8.70
2018-02-11T15:27:26.217Z,8.60
2018-02-11T15:29:52.857Z,8.95
2018-02-11T15:32:19.281Z,9.55
2018-02-11T15:34:45.638Z,8.05
2018-02-11T15:37:12.053Z,9.52
2018-02-11T15:39:38.475Z,8.20
2018-02-11T15:42:04.883Z,9.15
2018-02-11T15:44:31.449Z,7.80
2018-02-11T15:46:57.766Z,8.63
2018-02-11T15:49:24.449Z,8.95
2018-02-11T15:51:50.810Z,9.07
2018-02-11T15:54:17.145Z,12.13
2018-02-11T15:56:44.618Z,9.77
2018-02-11T15:59:11.345Z,7.95
2018-02-11T16:01:37.792Z,7.60
2018-02-11T16:04:04.210Z,7.82
2018-02-11T16:06:31.011Z,7.93
2018-02-11T16:08:57.781Z,7.70
2018-02-11T16:11:24.539Z,6.97
2018-02-11T16:13:50.866Z,7.20
2018-02-11T16:16:17.236Z,7.55
2018-02-11T16:18:43.699Z,8.18
2018-02-11T16:21:10.225Z,8.20
2018-02-11T16:23:36.956Z,13.45
2018-02-11T16:26:03.296Z,8.60
2018-02-11T16:28:29.650Z,8.35
2018-02-11T16:30:56.087Z,8.45
2018-02-11T16:33:22.867Z,8.40
2018-02-11T16:35:49.244Z,10.23
2018-02-11T16:38:15.748Z,8.02
2018-02-11T16:40:43.123Z,8.05
2018-02-11T16:43:09.508Z,8.40
2018-02-11T16:45:35.815Z,8.50
2018-02-11T16:48:02.200Z,7.50
2018-02-11T16:50:28.716Z,7.85
2018-02-11T16:52:55.120Z,8.48
2018-02-11T16:55:21.584Z,8.45
2018-02-11T16:57:48.245Z,10.02
2018-02-11T17:00:14.889Z,8.00
2018-02-11T17:02:41.250Z,8.60
2018-02-11T17:05:07.652Z,8.40
2018-02-11T17:07:34.099Z,8.40
2018-02-11T17:10:00.569Z,9.15
2018-02-11T17:12:27.016Z,8.38
2018-02-11T17:14:53.371Z,8.63
2018-02-11T17:17:19.730Z,9.10
2018-02-11T17:19:59.630Z,9.50
2018-02-11T17:22:28.730Z,9.07
2018-02-11T17:24:55.129Z,9.63
2018-02-11T17:27:22.019Z,8.98
2018-02-11T17:29:49.321Z,8.35
2018-02-11T17:32:15.705Z,8.23
2018-02-11T17:34:42.210Z,8.32
2018-02-11T17:37:08.796Z,7.32
2018-02-11T17:39:35.272Z,9.10
2018-02-11T17:42:01.663Z,9.38
2018-02-11T17:44:28.093Z,7.78
2018-02-11T17:46:54.596Z,8.82
2018-02-11T17:49:21.157Z,8.43
2018-02-11T17:51:47.568Z,8.50
2018-02-11T17:54:13.944Z,8.40
2018-02-11T17:56:40.555Z,8.43
2018-02-11T17:59:06.993Z,9.65
2018-02-11T18:01:34.385Z,9.63
2018-02-11T18:04:00.913Z,11.80
2018-02-11T18:06:27.468Z,15.25
2018-02-11T18:08:54.251Z,10.05
2018-02-11T18:11:20.612Z,9.98
2018-02-11T18:13:47.115Z,16.90
2018-02-11T18:16:13.620Z,12.63
2018-02-11T18:18:40.435Z,11.43
2018-02-11T18:21:07.153Z,17.52
2018-02-11T18:23:33.519Z,11.00
2018-02-11T18:26:00.317Z,10.77
2018-02-11T18:28:27.322Z,10.80
2018-02-11T18:30:54.089Z,11.15
2018-02-11T18:33:20.482Z,11.05
2018-02-11T18:35:46.874Z,11.77
2018-02-11T18:38:13.268Z,10.48
2018-02-11T18:40:39.659Z,16.33
2018-02-11T18:43:06.094Z,11.30
2018-02-11T18:45:32.468Z,11.15
2018-02-11T18:47:58.908Z,11.18
2018-02-11T18:50:25.204Z,10.80
2018-02-11T18:52:51.711Z,11.52
2018-02-11T18:55:18.048Z,11.52
2018-02-11T18:57:44.505Z,13.02
2018-02-11T19:00:11.275Z,15.15
2018-02-11T19:02:38.131Z,19.10
2018-02-11T19:05:04.567Z,12.52
2018-02-11T19:07:30.952Z,11.05
2018-02-11T19:09:57.414Z,15.27
2018-02-11T19:12:23.822Z,12.30
2018-02-11T19:14:50.202Z,10.32
2018-02-11T19:17:16.753Z,9.75
2018-02-11T19:19:43.225Z,8.98
2018-02-11T19:22:09.601Z,11.05
2018-02-11T19:24:36.120Z,12.13
2018-02-11T19:27:02.662Z,12.13
2018-02-11T19:29:32.403Z,13.25
2018-02-11T19:31:58.813Z,13.95
2018-02-11T19:34:25.377Z,14.93
2018-02-11T19:36:51.818Z,14.18
2018-02-11T19:39:18.245Z,13.90
2018-02-11T19:41:44.806Z,13.27
2018-02-11T19:44:11.359Z,14.40
2018-02-11T19:46:40.064Z,14.32
2018-02-11T19:49:06.392Z,14.00
2018-02-11T19:51:32.833Z,13.75
2018-02-11T19:53:59.755Z,12.20
2018-02-11T19:56:26.196Z,15.20
2018-02-11T19:58:52.946Z,14.30
2018-02-11T20:01:19.341Z,14.27
2018-02-11T20:03:46.367Z,14.30
2018-02-11T20:06:14.203Z,13.60
2018-02-11T20:08:40.567Z,17.15
2018-02-11T20:11:07.013Z,15.30
2018-02-11T20:13:33.846Z,25.00
2018-02-11T20:16:00.535Z,16.50
2018-02-11T20:18:26.886Z,16.95
2018-02-11T20:20:53.384Z,17.98
2018-02-11T20:23:19.781Z,18.90
2018-02-11T20:25:46.280Z,17.90
2018-02-11T20:28:12.789Z,17.77
2018-02-11T20:30:39.181Z,17.40
2018-02-11T20:33:05.978Z,16.62
2018-02-11T20:35:32.569Z,18.30
2018-02-11T20:37:58.900Z,17.77
2018-02-11T20:40:25.663Z,18.65
2018-02-11T20:42:52.033Z,17.55
2018-02-11T20:45:18.407Z,20.80
2018-02-11T20:47:44.706Z,16.45
2018-02-11T20:50:11.030Z,16.87
2018-02-11T20:52:37.458Z,16.90
2018-02-11T20:55:03.888Z,17.98
2018-02-11T20:57:30.343Z,17.20
2018-02-11T20:59:57.036Z,16.52
2018-02-11T21:02:23.354Z,17.65
2018-02-11T21:04:49.749Z,17.40
2018-02-11T21:07:16.202Z,16.92
2018-02-11T21:09:42.590Z,15.50
2018-02-11T21:12:09.356Z,16.95
2018-02-11T21:14:36.075Z,17.20
2018-02-11T21:17:02.698Z,15.35
2018-02-11T21:19:29.925Z,17.00
2018-02-11T21:21:56.985Z,15.63
2018-02-11T21:24:23.613Z,15.45
2018-02-11T21:26:49.975Z,14.55
2018-02-11T21:29:16.364Z,16.10
2018-02-11T21:31:42.713Z,15.32
2018-02-11T21:34:09.086Z,15.00
2018-02-11T21:36:35.447Z,16.12
2018-02-11T21:39:01.899Z,16.30
2018-02-11T21:41:28.408Z,16.60
2018-02-11T21:43:54.708Z,15.07
2018-02-11T21:46:21.040Z,15.38
2018-02-11T21:48:47.366Z,14.57
2018-02-11T21:51:13.681Z,16.37
2018-02-11T21:53:40.026Z,16.00
2018-02-11T21:56:06.494Z,14.27
2018-02-11T21:58:32.816Z,15.60
2018-02-11T22:00:59.128Z,14.40
2018-02-11T22:03:25.485Z,14.18
2018-02-11T22:05:51.848Z,14.80
2018-02-11T22:08:18.205Z,12.77
2018-02-11T22:10:44.543Z,13.98
2018-02-11T22:13:10.814Z,13.43
2018-02-11T22:15:37.094Z,12.48
2018-02-11T22:18:03.425Z,11.70
2018-02-11T22:20:29.755Z,12.18
2018-02-11T22:22:56.057Z,12.43
2018-02-11T22:25:22.341Z,11.95
2018-02-11T22:27:49.025Z,13.10
2018-02-11T22:30:15.341Z,13.75
2018-02-11T22:32:41.708Z,14.63
2018-02-11T22:35:08.009Z,14.43
2018-02-11T22:37:34.414Z,15.27
2018-02-11T22:40:00.751Z,14.18
2018-02-11T22:42:27.050Z,16.70
2018-02-11T22:44:53.343Z,18.30
2018-02-11T22:47:19.749Z,26.23
2018-02-11T22:49:46.032Z,31.33
2018-02-11T22:52:12.849Z,34.90
2018-02-11T22:54:39.197Z,34.08
2018-02-11T22:57:05.534Z,28.73
2018-02-11T22:59:32.257Z,24.33
2018-02-11T23:01:58.574Z,21.08
2018-02-11T23:04:24.872Z,16.65
2018-02-11T23:06:51.269Z,13.30
2018-02-11T23:09:17.508Z,11.55
2018-02-11T23:11:44.160Z,10.07
2018-02-11T23:14:10.934Z,9.77
2018-02-11T23:16:37.236Z,8.25
2018-02-11T23:19:03.551Z,8.15
2018-02-11T23:21:30.141Z,7.70
2018-02-11T23:23:56.586Z,8.48
2018-02-11T23:26:22.964Z,8.18
2018-02-11T23:28:49.705Z,8.48
2018-02-11T23:31:16.622Z,7.70
2018-02-11T23:33:42.914Z,7.80
2018-02-11T23:36:09.206Z,7.65
2018-02-11T23:38:35.481Z,7.25
2018-02-11T23:41:01.820Z,8.60
2018-02-11T23:43:28.524Z,7.43
2018-02-11T23:45:54.924Z,6.72
2018-02-11T23:48:21.262Z,7.05
2018-02-11T23:50:47.957Z,7.10
2018-02-11T23:53:14.376Z,7.05
2018-02-11T23:55:40.631Z,7.22
2018-02-11T23:58:06.977Z,7.10
